BIVM

Vestmannaeyjar Airport

Vestmannaeyjar, Iceland
METAR BIVM 181300Z 10020KT 9999 FEW050 05/04 Q1005
Observed Flight Rules
Jan-18 @ 13:00 UTC (an hour ago) Visual Flight Rules
Wind Visibility Clouds
100° at 20 knots 10,000+ meters
  • Few at 5,000' AGL
Temperatures Readings
Current 5°C / 41°F
Dewpoint 4°C / 39°F
Humidity 93%
Altimeter 29.68" Hg
Pressure 1004.92 hPa
Elevation 124
METAR BIVM 181300Z 10020KT 9999 FEW050 05/04 Q1005
Observed Flight Rules
Jan-18 @ 13:00 UTC
(an hour ago)
VFR
Wind Visibility
100° at 20 knots 10,000+ meters
Clouds
  • Few at 5,000' AGL
Temperature Dewpoint
5°C / 41°F 4°C / 39°F
Humidity Altimeter Pressure
93% 29.68" Hg 1004.92 hPa